sensor_id;sensor_type;location;lat;lon;timestamp;P1;durP1;ratioP1;P2;durP2;ratioP2
74894;SDS011;63447;49.446;8.666;2024-03-22T00:02:17;7.72;;;3.78;;
74894;SDS011;63447;49.446;8.666;2024-03-22T00:04:44;8.68;;;4.63;;
74894;SDS011;63447;49.446;8.666;2024-03-22T00:07:12;8.82;;;4.07;;
74894;SDS011;63447;49.446;8.666;2024-03-22T00:09:37;8.70;;;4.43;;
74894;SDS011;63447;49.446;8.666;2024-03-22T00:12:02;7.53;;;4.10;;
74894;SDS011;63447;49.446;8.666;2024-03-22T00:14:29;8.88;;;3.80;;
74894;SDS011;63447;49.446;8.666;2024-03-22T00:16:54;10.57;;;4.20;;
74894;SDS011;63447;49.446;8.666;2024-03-22T00:19:19;8.37;;;4.17;;
74894;SDS011;63447;49.446;8.666;2024-03-22T00:21:45;8.80;;;4.35;;
74894;SDS011;63447;49.446;8.666;2024-03-22T00:24:10;8.95;;;4.72;;
74894;SDS011;63447;49.446;8.666;2024-03-22T00:26:35;8.80;;;4.40;;
74894;SDS011;63447;49.446;8.666;2024-03-22T00:29:01;9.43;;;4.53;;
74894;SDS011;63447;49.446;8.666;2024-03-22T00:31:29;10.27;;;4.82;;
74894;SDS011;63447;49.446;8.666;2024-03-22T00:33:54;9.43;;;4.53;;
74894;SDS011;63447;49.446;8.666;2024-03-22T00:36:19;11.45;;;4.65;;
74894;SDS011;63447;49.446;8.666;2024-03-22T00:38:46;7.87;;;4.37;;
74894;SDS011;63447;49.446;8.666;2024-03-22T00:41:11;8.50;;;4.18;;
74894;SDS011;63447;49.446;8.666;2024-03-22T00:43:37;9.53;;;4.27;;
74894;SDS011;63447;49.446;8.666;2024-03-22T00:46:04;9.35;;;4.63;;
74894;SDS011;63447;49.446;8.666;2024-03-22T00:48:30;8.07;;;4.17;;
74894;SDS011;63447;49.446;8.666;2024-03-22T00:50:55;7.85;;;4.20;;
74894;SDS011;63447;49.446;8.666;2024-03-22T00:53:21;8.95;;;4.57;;
74894;SDS011;63447;49.446;8.666;2024-03-22T00:55:46;13.70;;;4.60;;
74894;SDS011;63447;49.446;8.666;2024-03-22T00:58:16;9.90;;;5.00;;
74894;SDS011;63447;49.446;8.666;2024-03-22T01:00:43;10.15;;;4.60;;
74894;SDS011;63447;49.446;8.666;2024-03-22T01:03:09;10.45;;;4.95;;
74894;SDS011;63447;49.446;8.666;2024-03-22T01:05:36;11.52;;;5.03;;
74894;SDS011;63447;49.446;8.666;2024-03-22T01:08:02;11.68;;;5.57;;
74894;SDS011;63447;49.446;8.666;2024-03-22T01:10:27;12.32;;;5.50;;
74894;SDS011;63447;49.446;8.666;2024-03-22T01:12:56;11.05;;;5.47;;
74894;SDS011;63447;49.446;8.666;2024-03-22T01:15:23;12.07;;;5.70;;
74894;SDS011;63447;49.446;8.666;2024-03-22T01:17:52;10.63;;;5.05;;
74894;SDS011;63447;49.446;8.666;2024-03-22T01:20:18;11.93;;;5.20;;
74894;SDS011;63447;49.446;8.666;2024-03-22T01:22:46;11.57;;;5.53;;
74894;SDS011;63447;49.446;8.666;2024-03-22T01:25:11;12.48;;;5.50;;
74894;SDS011;63447;49.446;8.666;2024-03-22T01:27:39;13.15;;;6.05;;
74894;SDS011;63447;49.446;8.666;2024-03-22T01:30:04;11.07;;;4.93;;
74894;SDS011;63447;49.446;8.666;2024-03-22T01:32:34;13.02;;;5.18;;
74894;SDS011;63447;49.446;8.666;2024-03-22T01:35:02;14.05;;;5.45;;
74894;SDS011;63447;49.446;8.666;2024-03-22T01:37:30;9.93;;;5.63;;
74894;SDS011;63447;49.446;8.666;2024-03-22T01:39:57;10.65;;;5.00;;
74894;SDS011;63447;49.446;8.666;2024-03-22T01:42:25;10.55;;;5.60;;
74894;SDS011;63447;49.446;8.666;2024-03-22T01:44:53;11.23;;;5.20;;
74894;SDS011;63447;49.446;8.666;2024-03-22T01:47:18;15.63;;;6.10;;
74894;SDS011;63447;49.446;8.666;2024-03-22T01:49:44;11.52;;;5.60;;
74894;SDS011;63447;49.446;8.666;2024-03-22T01:52:09;12.10;;;5.10;;
74894;SDS011;63447;49.446;8.666;2024-03-22T01:54:35;14.45;;;5.05;;
74894;SDS011;63447;49.446;8.666;2024-03-22T01:57:05;13.18;;;6.57;;
74894;SDS011;63447;49.446;8.666;2024-03-22T01:59:33;12.52;;;5.93;;
74894;SDS011;63447;49.446;8.666;2024-03-22T02:01:58;12.82;;;6.10;;
74894;SDS011;63447;49.446;8.666;2024-03-22T02:04:24;12.00;;;5.80;;
74894;SDS011;63447;49.446;8.666;2024-03-22T02:06:49;13.90;;;5.88;;
74894;SDS011;63447;49.446;8.666;2024-03-22T02:09:15;12.43;;;6.22;;
74894;SDS011;63447;49.446;8.666;2024-03-22T02:11:42;13.05;;;5.90;;
74894;SDS011;63447;49.446;8.666;2024-03-22T02:14:08;16.10;;;6.85;;
74894;SDS011;63447;49.446;8.666;2024-03-22T02:16:33;12.53;;;5.80;;
74894;SDS011;63447;49.446;8.666;2024-03-22T02:18:59;14.00;;;6.70;;
74894;SDS011;63447;49.446;8.666;2024-03-22T02:21:24;12.30;;;5.43;;
74894;SDS011;63447;49.446;8.666;2024-03-22T02:23:49;13.32;;;6.03;;
74894;SDS011;63447;49.446;8.666;2024-03-22T02:26:17;12.17;;;6.13;;
74894;SDS011;63447;49.446;8.666;2024-03-22T02:28:42;12.57;;;5.93;;
74894;SDS011;63447;49.446;8.666;2024-03-22T02:31:10;13.33;;;5.90;;
74894;SDS011;63447;49.446;8.666;2024-03-22T02:33:35;12.90;;;6.07;;
74894;SDS011;63447;49.446;8.666;2024-03-22T02:36:01;11.18;;;5.65;;
74894;SDS011;63447;49.446;8.666;2024-03-22T02:38:26;13.23;;;6.67;;
74894;SDS011;63447;49.446;8.666;2024-03-22T02:40:52;12.47;;;6.07;;
74894;SDS011;63447;49.446;8.666;2024-03-22T02:43:17;12.20;;;6.32;;
74894;SDS011;63447;49.446;8.666;2024-03-22T02:45:43;13.95;;;6.28;;
74894;SDS011;63447;49.446;8.666;2024-03-22T02:48:09;13.55;;;6.00;;
74894;SDS011;63447;49.446;8.666;2024-03-22T02:50:38;13.38;;;6.07;;
74894;SDS011;63447;49.446;8.666;2024-03-22T02:53:03;14.05;;;6.45;;
74894;SDS011;63447;49.446;8.666;2024-03-22T02:55:29;16.33;;;6.53;;
74894;SDS011;63447;49.446;8.666;2024-03-22T02:57:58;12.70;;;5.82;;
74894;SDS011;63447;49.446;8.666;2024-03-22T03:00:23;14.00;;;6.47;;
74894;SDS011;63447;49.446;8.666;2024-03-22T03:02:49;12.17;;;5.80;;
74894;SDS011;63447;49.446;8.666;2024-03-22T03:05:15;10.95;;;5.38;;
74894;SDS011;63447;49.446;8.666;2024-03-22T03:07:40;12.87;;;5.63;;
74894;SDS011;63447;49.446;8.666;2024-03-22T03:10:08;13.23;;;6.00;;
74894;SDS011;63447;49.446;8.666;2024-03-22T03:12:33;12.23;;;5.70;;
74894;SDS011;63447;49.446;8.666;2024-03-22T03:14:59;12.23;;;5.53;;
74894;SDS011;63447;49.446;8.666;2024-03-22T03:17:24;13.90;;;6.10;;
74894;SDS011;63447;49.446;8.666;2024-03-22T03:19:49;12.07;;;6.07;;
74894;SDS011;63447;49.446;8.666;2024-03-22T03:22:15;13.20;;;6.00;;
74894;SDS011;63447;49.446;8.666;2024-03-22T03:24:40;13.15;;;6.32;;
74894;SDS011;63447;49.446;8.666;2024-03-22T03:27:06;13.40;;;5.43;;
74894;SDS011;63447;49.446;8.666;2024-03-22T03:29:33;15.02;;;6.63;;
74894;SDS011;63447;49.446;8.666;2024-03-22T03:32:01;11.97;;;6.13;;
74894;SDS011;63447;49.446;8.666;2024-03-22T03:34:26;13.38;;;6.45;;
74894;SDS011;63447;49.446;8.666;2024-03-22T03:36:56;13.27;;;6.30;;
74894;SDS011;63447;49.446;8.666;2024-03-22T03:39:25;12.02;;;5.78;;
74894;SDS011;63447;49.446;8.666;2024-03-22T03:41:51;10.93;;;5.00;;
74894;SDS011;63447;49.446;8.666;2024-03-22T03:44:16;12.27;;;5.27;;
74894;SDS011;63447;49.446;8.666;2024-03-22T03:46:41;12.87;;;5.67;;
74894;SDS011;63447;49.446;8.666;2024-03-22T03:49:09;10.68;;;5.15;;
74894;SDS011;63447;49.446;8.666;2024-03-22T03:51:37;10.52;;;4.82;;
74894;SDS011;63447;49.446;8.666;2024-03-22T03:54:03;10.35;;;5.57;;
74894;SDS011;63447;49.446;8.666;2024-03-22T03:56:30;10.38;;;5.15;;
74894;SDS011;63447;49.446;8.666;2024-03-22T03:58:56;11.10;;;5.63;;
74894;SDS011;63447;49.446;8.666;2024-03-22T04:01:21;11.40;;;5.33;;
74894;SDS011;63447;49.446;8.666;2024-03-22T04:03:48;10.88;;;5.57;;
74894;SDS011;63447;49.446;8.666;2024-03-22T04:06:13;11.45;;;5.18;;
74894;SDS011;63447;49.446;8.666;2024-03-22T04:08:42;13.35;;;5.78;;
74894;SDS011;63447;49.446;8.666;2024-03-22T04:11:08;12.35;;;5.28;;
74894;SDS011;63447;49.446;8.666;2024-03-22T04:13:33;12.43;;;5.82;;
74894;SDS011;63447;49.446;8.666;2024-03-22T04:16:01;11.43;;;6.18;;
74894;SDS011;63447;49.446;8.666;2024-03-22T04:18:29;9.30;;;4.95;;
74894;SDS011;63447;49.446;8.666;2024-03-22T04:20:57;11.48;;;5.53;;
74894;SDS011;63447;49.446;8.666;2024-03-22T04:23:27;12.60;;;5.90;;
74894;SDS011;63447;49.446;8.666;2024-03-22T04:25:59;11.15;;;5.20;;
74894;SDS011;63447;49.446;8.666;2024-03-22T04:28:25;13.20;;;5.72;;
74894;SDS011;63447;49.446;8.666;2024-03-22T04:31:04;12.13;;;5.55;;
74894;SDS011;63447;49.446;8.666;2024-03-22T04:33:31;11.88;;;5.15;;
74894;SDS011;63447;49.446;8.666;2024-03-22T04:35:58;10.18;;;5.10;;
74894;SDS011;63447;49.446;8.666;2024-03-22T04:38:27;10.55;;;4.63;;
74894;SDS011;63447;49.446;8.666;2024-03-22T04:40:55;12.57;;;5.32;;
74894;SDS011;63447;49.446;8.666;2024-03-22T04:43:21;11.23;;;5.22;;
74894;SDS011;63447;49.446;8.666;2024-03-22T04:45:48;11.40;;;5.22;;
74894;SDS011;63447;49.446;8.666;2024-03-22T04:48:17;11.27;;;5.20;;
74894;SDS011;63447;49.446;8.666;2024-03-22T04:50:45;10.35;;;4.55;;
74894;SDS011;63447;49.446;8.666;2024-03-22T04:53:12;12.48;;;5.47;;
74894;SDS011;63447;49.446;8.666;2024-03-22T04:55:38;12.43;;;5.88;;
74894;SDS011;63447;49.446;8.666;2024-03-22T04:58:03;11.60;;;5.63;;
74894;SDS011;63447;49.446;8.666;2024-03-22T05:00:28;15.02;;;5.97;;
74894;SDS011;63447;49.446;8.666;2024-03-22T05:02:54;15.20;;;6.88;;
74894;SDS011;63447;49.446;8.666;2024-03-22T05:05:19;15.27;;;7.28;;
74894;SDS011;63447;49.446;8.666;2024-03-22T05:07:45;16.75;;;7.15;;
74894;SDS011;63447;49.446;8.666;2024-03-22T05:10:11;14.47;;;6.73;;
74894;SDS011;63447;49.446;8.666;2024-03-22T05:12:41;14.25;;;6.18;;
74894;SDS011;63447;49.446;8.666;2024-03-22T05:15:07;15.57;;;7.13;;
74894;SDS011;63447;49.446;8.666;2024-03-22T05:17:32;13.45;;;6.70;;
74894;SDS011;63447;49.446;8.666;2024-03-22T05:20:01;11.90;;;5.45;;
74894;SDS011;63447;49.446;8.666;2024-03-22T05:22:27;14.18;;;6.35;;
74894;SDS011;63447;49.446;8.666;2024-03-22T05:24:52;13.02;;;6.30;;
74894;SDS011;63447;49.446;8.666;2024-03-22T05:27:18;15.40;;;6.03;;
74894;SDS011;63447;49.446;8.666;2024-03-22T05:29:43;13.93;;;6.18;;
74894;SDS011;63447;49.446;8.666;2024-03-22T05:32:09;10.95;;;5.75;;
74894;SDS011;63447;49.446;8.666;2024-03-22T05:34:34;13.55;;;6.20;;
74894;SDS011;63447;49.446;8.666;2024-03-22T05:37:00;11.15;;;5.95;;
74894;SDS011;63447;49.446;8.666;2024-03-22T05:39:26;11.73;;;5.32;;
74894;SDS011;63447;49.446;8.666;2024-03-22T05:41:56;11.15;;;5.95;;
74894;SDS011;63447;49.446;8.666;2024-03-22T05:44:24;10.57;;;5.70;;
74894;SDS011;63447;49.446;8.666;2024-03-22T05:46:51;11.45;;;6.25;;
74894;SDS011;63447;49.446;8.666;2024-03-22T05:49:17;10.70;;;5.70;;
74894;SDS011;63447;49.446;8.666;2024-03-22T05:51:45;12.45;;;6.22;;
74894;SDS011;63447;49.446;8.666;2024-03-22T05:54:12;11.90;;;5.65;;
74894;SDS011;63447;49.446;8.666;2024-03-22T05:56:37;12.27;;;5.83;;
74894;SDS011;63447;49.446;8.666;2024-03-22T05:59:05;13.10;;;6.20;;
74894;SDS011;63447;49.446;8.666;2024-03-22T06:01:33;11.82;;;6.45;;
74894;SDS011;63447;49.446;8.666;2024-03-22T06:04:00;13.43;;;6.40;;
74894;SDS011;63447;49.446;8.666;2024-03-22T06:06:26;12.50;;;6.73;;
74894;SDS011;63447;49.446;8.666;2024-03-22T06:08:54;11.05;;;6.05;;
74894;SDS011;63447;49.446;8.666;2024-03-22T06:11:21;12.18;;;6.13;;
74894;SDS011;63447;49.446;8.666;2024-03-22T06:13:47;10.35;;;5.75;;
74894;SDS011;63447;49.446;8.666;2024-03-22T06:16:12;12.93;;;6.90;;
74894;SDS011;63447;49.446;8.666;2024-03-22T06:18:38;13.15;;;6.90;;
74894;SDS011;63447;49.446;8.666;2024-03-22T06:21:04;14.43;;;6.57;;
74894;SDS011;63447;49.446;8.666;2024-03-22T06:23:30;14.32;;;6.88;;
74894;SDS011;63447;49.446;8.666;2024-03-22T06:25:59;12.50;;;6.97;;
74894;SDS011;63447;49.446;8.666;2024-03-22T06:28:27;14.52;;;6.75;;
74894;SDS011;63447;49.446;8.666;2024-03-22T06:30:53;14.50;;;7.30;;
74894;SDS011;63447;49.446;8.666;2024-03-22T06:33:20;15.82;;;7.75;;
74894;SDS011;63447;49.446;8.666;2024-03-22T06:35:46;15.63;;;7.60;;
74894;SDS011;63447;49.446;8.666;2024-03-22T06:38:12;14.90;;;7.47;;
74894;SDS011;63447;49.446;8.666;2024-03-22T06:40:37;16.25;;;7.60;;
74894;SDS011;63447;49.446;8.666;2024-03-22T06:43:03;16.08;;;7.63;;
74894;SDS011;63447;49.446;8.666;2024-03-22T06:45:30;14.05;;;7.75;;
74894;SDS011;63447;49.446;8.666;2024-03-22T06:47:56;13.03;;;7.57;;
74894;SDS011;63447;49.446;8.666;2024-03-22T06:50:21;15.43;;;7.47;;
74894;SDS011;63447;49.446;8.666;2024-03-22T06:52:53;18.25;;;9.70;;
74894;SDS011;63447;49.446;8.666;2024-03-22T06:55:21;16.05;;;9.00;;
74894;SDS011;63447;49.446;8.666;2024-03-22T06:57:52;16.67;;;8.48;;
74894;SDS011;63447;49.446;8.666;2024-03-22T07:00:20;15.90;;;8.60;;
74894;SDS011;63447;49.446;8.666;2024-03-22T07:02:45;15.13;;;8.27;;
74894;SDS011;63447;49.446;8.666;2024-03-22T07:05:10;14.90;;;7.87;;
74894;SDS011;63447;49.446;8.666;2024-03-22T07:07:36;19.70;;;8.07;;
74894;SDS011;63447;49.446;8.666;2024-03-22T07:10:04;13.50;;;7.38;;
74894;SDS011;63447;49.446;8.666;2024-03-22T07:12:30;13.13;;;7.47;;
74894;SDS011;63447;49.446;8.666;2024-03-22T07:14:59;13.52;;;7.03;;
74894;SDS011;63447;49.446;8.666;2024-03-22T07:17:30;14.27;;;7.20;;
74894;SDS011;63447;49.446;8.666;2024-03-22T07:19:57;15.73;;;7.38;;
74894;SDS011;63447;49.446;8.666;2024-03-22T07:22:27;14.60;;;7.70;;
74894;SDS011;63447;49.446;8.666;2024-03-22T07:24:52;14.65;;;7.22;;
74894;SDS011;63447;49.446;8.666;2024-03-22T07:27:21;13.38;;;7.35;;
74894;SDS011;63447;49.446;8.666;2024-03-22T07:29:46;12.97;;;7.20;;
74894;SDS011;63447;49.446;8.666;2024-03-22T07:32:14;13.20;;;7.47;;
74894;SDS011;63447;49.446;8.666;2024-03-22T07:34:39;14.57;;;7.65;;
74894;SDS011;63447;49.446;8.666;2024-03-22T07:37:04;13.00;;;7.70;;
74894;SDS011;63447;49.446;8.666;2024-03-22T07:39:32;12.88;;;7.22;;
74894;SDS011;63447;49.446;8.666;2024-03-22T07:42:00;12.60;;;7.30;;
74894;SDS011;63447;49.446;8.666;2024-03-22T07:44:27;16.10;;;9.25;;
74894;SDS011;63447;49.446;8.666;2024-03-22T07:46:55;13.00;;;7.85;;
74894;SDS011;63447;49.446;8.666;2024-03-22T07:49:20;13.30;;;6.77;;
74894;SDS011;63447;49.446;8.666;2024-03-22T07:51:48;13.30;;;7.60;;
74894;SDS011;63447;49.446;8.666;2024-03-22T07:54:16;12.90;;;7.43;;
74894;SDS011;63447;49.446;8.666;2024-03-22T07:56:41;13.35;;;6.82;;
74894;SDS011;63447;49.446;8.666;2024-03-22T07:59:07;11.30;;;6.60;;
74894;SDS011;63447;49.446;8.666;2024-03-22T08:01:37;12.80;;;7.22;;
74894;SDS011;63447;49.446;8.666;2024-03-22T08:04:02;12.93;;;7.50;;
74894;SDS011;63447;49.446;8.666;2024-03-22T08:06:30;13.07;;;6.78;;
74894;SDS011;63447;49.446;8.666;2024-03-22T08:08:55;12.73;;;6.33;;
74894;SDS011;63447;49.446;8.666;2024-03-22T08:11:23;12.13;;;6.65;;
74894;SDS011;63447;49.446;8.666;2024-03-22T08:13:51;13.88;;;7.30;;
74894;SDS011;63447;49.446;8.666;2024-03-22T08:16:18;12.40;;;6.35;;
74894;SDS011;63447;49.446;8.666;2024-03-22T08:18:44;12.55;;;6.68;;
74894;SDS011;63447;49.446;8.666;2024-03-22T08:21:10;11.27;;;7.00;;
74894;SDS011;63447;49.446;8.666;2024-03-22T08:23:35;13.50;;;6.67;;
74894;SDS011;63447;49.446;8.666;2024-03-22T08:26:00;11.27;;;6.28;;
74894;SDS011;63447;49.446;8.666;2024-03-22T08:28:28;11.43;;;6.13;;
74894;SDS011;63447;49.446;8.666;2024-03-22T08:30:53;13.27;;;6.03;;
74894;SDS011;63447;49.446;8.666;2024-03-22T08:33:19;10.73;;;5.90;;
74894;SDS011;63447;49.446;8.666;2024-03-22T08:35:44;11.00;;;6.17;;
74894;SDS011;63447;49.446;8.666;2024-03-22T08:38:09;10.67;;;6.00;;
74894;SDS011;63447;49.446;8.666;2024-03-22T08:40:38;11.15;;;6.15;;
74894;SDS011;63447;49.446;8.666;2024-03-22T08:43:06;13.80;;;7.00;;
74894;SDS011;63447;49.446;8.666;2024-03-22T08:45:34;10.80;;;5.95;;
74894;SDS011;63447;49.446;8.666;2024-03-22T08:48:00;12.63;;;6.43;;
74894;SDS011;63447;49.446;8.666;2024-03-22T08:50:26;11.67;;;5.90;;
74894;SDS011;63447;49.446;8.666;2024-03-22T08:52:53;10.32;;;5.57;;
74894;SDS011;63447;49.446;8.666;2024-03-22T08:55:18;10.00;;;5.63;;
74894;SDS011;63447;49.446;8.666;2024-03-22T08:57:46;10.07;;;5.72;;
74894;SDS011;63447;49.446;8.666;2024-03-22T09:00:12;11.57;;;5.67;;
74894;SDS011;63447;49.446;8.666;2024-03-22T09:02:37;10.25;;;5.68;;
74894;SDS011;63447;49.446;8.666;2024-03-22T09:05:05;10.20;;;5.85;;
74894;SDS011;63447;49.446;8.666;2024-03-22T09:07:31;9.15;;;4.93;;
74894;SDS011;63447;49.446;8.666;2024-03-22T09:09:56;9.80;;;5.88;;
74894;SDS011;63447;49.446;8.666;2024-03-22T09:12:21;9.37;;;5.33;;
74894;SDS011;63447;49.446;8.666;2024-03-22T09:14:52;10.27;;;5.32;;
74894;SDS011;63447;49.446;8.666;2024-03-22T09:17:19;9.55;;;5.20;;
74894;SDS011;63447;49.446;8.666;2024-03-22T09:19:47;9.02;;;4.85;;
74894;SDS011;63447;49.446;8.666;2024-03-22T09:22:12;14.68;;;5.75;;
74894;SDS011;63447;49.446;8.666;2024-03-22T09:24:38;10.23;;;5.10;;
74894;SDS011;63447;49.446;8.666;2024-03-22T09:27:03;13.32;;;5.00;;
74894;SDS011;63447;49.446;8.666;2024-03-22T09:29:33;9.82;;;4.85;;
74894;SDS011;63447;49.446;8.666;2024-03-22T09:32:02;11.38;;;4.95;;
74894;SDS011;63447;49.446;8.666;2024-03-22T09:34:27;8.82;;;4.93;;
74894;SDS011;63447;49.446;8.666;2024-03-22T09:36:54;9.98;;;5.05;;
74894;SDS011;63447;49.446;8.666;2024-03-22T09:39:20;9.13;;;4.93;;
74894;SDS011;63447;49.446;8.666;2024-03-22T09:41:45;10.03;;;5.07;;
74894;SDS011;63447;49.446;8.666;2024-03-22T09:44:12;11.68;;;5.22;;
74894;SDS011;63447;49.446;8.666;2024-03-22T09:46:44;8.45;;;4.70;;
74894;SDS011;63447;49.446;8.666;2024-03-22T09:49:11;9.80;;;5.47;;
74894;SDS011;63447;49.446;8.666;2024-03-22T09:51:37;9.27;;;4.63;;
74894;SDS011;63447;49.446;8.666;2024-03-22T09:54:04;10.13;;;5.00;;
74894;SDS011;63447;49.446;8.666;2024-03-22T09:56:30;11.70;;;4.72;;
74894;SDS011;63447;49.446;8.666;2024-03-22T09:58:56;8.55;;;4.68;;
74894;SDS011;63447;49.446;8.666;2024-03-22T10:01:22;9.00;;;5.35;;
74894;SDS011;63447;49.446;8.666;2024-03-22T10:03:50;8.43;;;4.65;;
74894;SDS011;63447;49.446;8.666;2024-03-22T10:06:16;10.00;;;5.03;;
74894;SDS011;63447;49.446;8.666;2024-03-22T10:08:42;9.40;;;5.10;;
74894;SDS011;63447;49.446;8.666;2024-03-22T10:11:07;8.30;;;4.60;;
74894;SDS011;63447;49.446;8.666;2024-03-22T10:13:33;9.13;;;5.50;;
74894;SDS011;63447;49.446;8.666;2024-03-22T10:15:58;9.20;;;5.10;;
74894;SDS011;63447;49.446;8.666;2024-03-22T10:18:23;9.87;;;5.13;;
74894;SDS011;63447;49.446;8.666;2024-03-22T10:21:01;8.87;;;4.90;;
74894;SDS011;63447;49.446;8.666;2024-03-22T10:23:32;9.68;;;5.53;;
74894;SDS011;63447;49.446;8.666;2024-03-22T10:25:58;10.13;;;5.25;;
74894;SDS011;63447;49.446;8.666;2024-03-22T10:28:26;9.35;;;5.72;;
74894;SDS011;63447;49.446;8.666;2024-03-22T10:30:54;10.60;;;5.75;;
74894;SDS011;63447;49.446;8.666;2024-03-22T10:33:22;10.32;;;5.45;;
74894;SDS011;63447;49.446;8.666;2024-03-22T10:35:52;10.02;;;5.30;;
74894;SDS011;63447;49.446;8.666;2024-03-22T10:38:20;14.68;;;5.50;;
74894;SDS011;63447;49.446;8.666;2024-03-22T10:40:46;8.98;;;4.75;;
74894;SDS011;63447;49.446;8.666;2024-03-22T10:43:15;8.93;;;4.88;;
74894;SDS011;63447;49.446;8.666;2024-03-22T10:45:41;9.48;;;5.15;;
74894;SDS011;63447;49.446;8.666;2024-03-22T10:50:41;10.25;;;4.95;;
74894;SDS011;63447;49.446;8.666;2024-03-22T10:53:08;8.57;;;4.93;;
74894;SDS011;63447;49.446;8.666;2024-03-22T10:55:38;9.00;;;4.80;;
74894;SDS011;63447;49.446;8.666;2024-03-22T10:58:07;10.55;;;4.78;;
74894;SDS011;63447;49.446;8.666;2024-03-22T11:00:42;7.85;;;4.45;;
74894;SDS011;63447;49.446;8.666;2024-03-22T11:03:12;9.23;;;4.93;;
74894;SDS011;63447;49.446;8.666;2024-03-22T11:05:50;7.97;;;4.70;;
74894;SDS011;63447;49.446;8.666;2024-03-22T11:08:26;9.48;;;4.93;;
74894;SDS011;63447;49.446;8.666;2024-03-22T11:11:09;10.68;;;5.35;;
74894;SDS011;63447;49.446;8.666;2024-03-22T11:13:41;9.80;;;5.18;;
74894;SDS011;63447;49.446;8.666;2024-03-22T11:16:09;8.95;;;4.65;;
74894;SDS011;63447;49.446;8.666;2024-03-22T11:18:35;10.48;;;5.35;;
74894;SDS011;63447;49.446;8.666;2024-03-22T11:21:00;9.90;;;5.13;;
74894;SDS011;63447;49.446;8.666;2024-03-22T11:23:25;9.30;;;4.95;;
74894;SDS011;63447;49.446;8.666;2024-03-22T11:25:53;9.38;;;5.18;;
74894;SDS011;63447;49.446;8.666;2024-03-22T11:28:18;10.13;;;4.72;;
74894;SDS011;63447;49.446;8.666;2024-03-22T11:30:45;9.77;;;5.10;;
74894;SDS011;63447;49.446;8.666;2024-03-22T11:33:10;8.98;;;4.85;;
74894;SDS011;63447;49.446;8.666;2024-03-22T11:35:35;8.27;;;4.45;;
74894;SDS011;63447;49.446;8.666;2024-03-22T11:38:01;7.80;;;4.30;;
74894;SDS011;63447;49.446;8.666;2024-03-22T11:40:29;7.97;;;3.92;;
74894;SDS011;63447;49.446;8.666;2024-03-22T11:42:58;8.50;;;4.05;;
74894;SDS011;63447;49.446;8.666;2024-03-22T11:45:25;8.73;;;3.92;;
74894;SDS011;63447;49.446;8.666;2024-03-22T11:47:52;11.23;;;5.07;;
74894;SDS011;63447;49.446;8.666;2024-03-22T11:50:18;10.15;;;4.30;;
74894;SDS011;63447;49.446;8.666;2024-03-22T11:52:44;7.15;;;3.78;;
74894;SDS011;63447;49.446;8.666;2024-03-22T11:55:12;6.00;;;3.30;;
74894;SDS011;63447;49.446;8.666;2024-03-22T11:57:48;7.15;;;3.42;;
74894;SDS011;63447;49.446;8.666;2024-03-22T12:00:14;5.93;;;3.25;;
74894;SDS011;63447;49.446;8.666;2024-03-22T12:02:42;7.32;;;3.55;;
74894;SDS011;63447;49.446;8.666;2024-03-22T12:05:08;7.05;;;3.50;;
74894;SDS011;63447;49.446;8.666;2024-03-22T12:07:34;7.45;;;3.20;;
74894;SDS011;63447;49.446;8.666;2024-03-22T12:10:00;6.32;;;3.35;;
74894;SDS011;63447;49.446;8.666;2024-03-22T12:12:25;7.30;;;3.70;;
74894;SDS011;63447;49.446;8.666;2024-03-22T12:14:51;7.78;;;3.30;;
74894;SDS011;63447;49.446;8.666;2024-03-22T12:17:17;6.57;;;3.38;;
74894;SDS011;63447;49.446;8.666;2024-03-22T12:19:43;6.75;;;3.30;;
74894;SDS011;63447;49.446;8.666;2024-03-22T12:22:08;11.80;;;6.90;;
74894;SDS011;63447;49.446;8.666;2024-03-22T12:24:34;6.97;;;2.92;;
74894;SDS011;63447;49.446;8.666;2024-03-22T12:26:59;6.23;;;2.73;;
74894;SDS011;63447;49.446;8.666;2024-03-22T12:29:25;6.50;;;3.13;;
74894;SDS011;63447;49.446;8.666;2024-03-22T12:31:50;7.75;;;3.15;;
74894;SDS011;63447;49.446;8.666;2024-03-22T12:34:16;7.15;;;3.05;;
74894;SDS011;63447;49.446;8.666;2024-03-22T12:36:41;6.47;;;3.95;;
74894;SDS011;63447;49.446;8.666;2024-03-22T12:39:07;6.32;;;3.30;;
74894;SDS011;63447;49.446;8.666;2024-03-22T12:41:37;6.35;;;3.17;;
74894;SDS011;63447;49.446;8.666;2024-03-22T12:44:02;6.70;;;3.15;;
74894;SDS011;63447;49.446;8.666;2024-03-22T12:46:28;7.05;;;3.38;;
74894;SDS011;63447;49.446;8.666;2024-03-22T12:48:54;6.60;;;3.30;;
74894;SDS011;63447;49.446;8.666;2024-03-22T12:51:19;8.48;;;3.63;;
74894;SDS011;63447;49.446;8.666;2024-03-22T12:53:45;7.40;;;3.72;;
74894;SDS011;63447;49.446;8.666;2024-03-22T12:56:11;8.38;;;4.10;;
74894;SDS011;63447;49.446;8.666;2024-03-22T12:58:36;9.15;;;3.40;;
74894;SDS011;63447;49.446;8.666;2024-03-22T13:01:02;7.10;;;3.70;;
74894;SDS011;63447;49.446;8.666;2024-03-22T13:03:28;8.80;;;4.10;;
74894;SDS011;63447;49.446;8.666;2024-03-22T13:05:54;10.82;;;4.78;;
74894;SDS011;63447;49.446;8.666;2024-03-22T13:08:19;9.05;;;4.25;;
74894;SDS011;63447;49.446;8.666;2024-03-22T13:10:49;6.53;;;3.97;;
74894;SDS011;63447;49.446;8.666;2024-03-22T13:13:15;7.25;;;4.30;;
74894;SDS011;63447;49.446;8.666;2024-03-22T13:15:43;6.68;;;3.97;;
74894;SDS011;63447;49.446;8.666;2024-03-22T13:18:09;9.35;;;4.38;;
74894;SDS011;63447;49.446;8.666;2024-03-22T13:20:34;8.15;;;4.10;;
74894;SDS011;63447;49.446;8.666;2024-03-22T13:23:03;8.13;;;4.13;;
74894;SDS011;63447;49.446;8.666;2024-03-22T13:25:29;8.80;;;4.68;;
74894;SDS011;63447;49.446;8.666;2024-03-22T13:28:03;6.93;;;4.03;;
74894;SDS011;63447;49.446;8.666;2024-03-22T13:30:31;6.68;;;4.07;;
74894;SDS011;63447;49.446;8.666;2024-03-22T13:32:57;7.93;;;4.60;;
74894;SDS011;63447;49.446;8.666;2024-03-22T13:35:22;10.67;;;4.27;;
74894;SDS011;63447;49.446;8.666;2024-03-22T13:37:50;8.35;;;4.72;;
74894;SDS011;63447;49.446;8.666;2024-03-22T13:40:18;8.63;;;3.95;;
74894;SDS011;63447;49.446;8.666;2024-03-22T13:42:46;8.43;;;4.07;;
74894;SDS011;63447;49.446;8.666;2024-03-22T13:45:13;7.65;;;4.57;;
74894;SDS011;63447;49.446;8.666;2024-03-22T13:47:39;7.72;;;4.03;;
74894;SDS011;63447;49.446;8.666;2024-03-22T13:50:06;6.57;;;3.58;;
74894;SDS011;63447;49.446;8.666;2024-03-22T13:52:33;6.75;;;3.60;;
74894;SDS011;63447;49.446;8.666;2024-03-22T13:54:59;8.63;;;3.83;;
74894;SDS011;63447;49.446;8.666;2024-03-22T13:57:26;7.18;;;4.03;;
74894;SDS011;63447;49.446;8.666;2024-03-22T13:59:51;7.53;;;3.85;;
74894;SDS011;63447;49.446;8.666;2024-03-22T14:02:19;7.47;;;4.13;;
74894;SDS011;63447;49.446;8.666;2024-03-22T14:04:45;7.72;;;4.15;;
74894;SDS011;63447;49.446;8.666;2024-03-22T14:07:10;8.10;;;3.83;;
74894;SDS011;63447;49.446;8.666;2024-03-22T14:09:35;8.10;;;3.95;;
74894;SDS011;63447;49.446;8.666;2024-03-22T14:12:04;7.43;;;3.30;;
74894;SDS011;63447;49.446;8.666;2024-03-22T14:14:30;5.90;;;3.35;;
74894;SDS011;63447;49.446;8.666;2024-03-22T14:16:55;7.87;;;3.80;;
74894;SDS011;63447;49.446;8.666;2024-03-22T14:19:20;7.55;;;3.90;;
74894;SDS011;63447;49.446;8.666;2024-03-22T14:21:46;7.82;;;3.80;;
74894;SDS011;63447;49.446;8.666;2024-03-22T14:24:12;6.65;;;3.78;;
74894;SDS011;63447;49.446;8.666;2024-03-22T14:26:41;7.32;;;3.55;;
74894;SDS011;63447;49.446;8.666;2024-03-22T14:29:11;5.80;;;3.67;;
74894;SDS011;63447;49.446;8.666;2024-03-22T14:31:40;7.60;;;3.90;;
74894;SDS011;63447;49.446;8.666;2024-03-22T14:34:07;6.75;;;3.17;;
74894;SDS011;63447;49.446;8.666;2024-03-22T14:36:32;6.32;;;3.80;;
74894;SDS011;63447;49.446;8.666;2024-03-22T14:38:58;9.77;;;3.83;;